Knight Prairie, Illinois
Current Conditions -  °F | °C
As of 9:35 PM on Friday 24 Oct 2014 (Local Time) from KFWC Reporting Station
Clear Clear  
Wind Chill: 49°   Ceiling: Unl
Heat Index: 49°   Visibility: 10mi
Dew Point: 48°   Wind: 0mph
Humidity: 95%   Direction: NA
Pressure: 30.04"   Gusts: NA
Location:  38.1018°N, 88.4953°W
Report Text: KFWC 250235Z AUTO 00000KT 10SM CLR 10/09 A3004 RMK AO1 T00970090
Loading
Personal Weather Stations






























Interactive Weather Map
Tropical Storm Tracking
New forecast layout! Learn more

10-Day Weather Forecast

Advertisements
Track Severe Weather on mobile